Harding Airport


Codes: FAHJ/
Name: Harding Airport
City: Harding
Country: South Africa
Elevation: 2890 ft.

Photos at Harding Airport


   Photos courtesy of SpottingLog. You can add your own sightings and photos by signing up for a free trial today.



No photos found.

Weather at Harding Airport


Time (UTC)DescriptionTempratureWindCloud coverageVisibilityPressureHumidity
25-Jun-2024 21:00Overcast Clouds13°C2 mph, W86%10000m1032hPa80%
26-Jun-2024 00:00Broken Clouds12°C2 mph, W76%10000m1032hPa84%
26-Jun-2024 03:00Scattered Clouds10°C4 mph, W29%10000m1031hPa87%
26-Jun-2024 06:00Clear Sky10°C4 mph, NW0%10000m1032hPa78%
26-Jun-2024 09:00Clear Sky18°C2 mph, E0%10000m1031hPa46%
26-Jun-2024 12:00Clear Sky19°C7 mph, SE0%10000m1028hPa43%
26-Jun-2024 15:00Clear Sky13°C2 mph, SE0%10000m1030hPa83%
26-Jun-2024 18:00Clear Sky11°C2 mph, W1%10000m1033hPa97%
26-Jun-2024 21:00Scattered Clouds10°C4 mph, NW32%10000m1033hPa95%
27-Jun-2024 00:00Few Clouds9°C4 mph, W24%10000m1032hPa92%
27-Jun-2024 03:00Clear Sky9°C4 mph, NW0%10000m1033hPa90%
27-Jun-2024 06:00Clear Sky10°C4 mph, NW0%10000m1033hPa78%
27-Jun-2024 09:00Clear Sky18°C4 mph, E0%10000m1032hPa48%
27-Jun-2024 12:00Clear Sky20°C4 mph, E0%10000m1028hPa42%
27-Jun-2024 15:00Clear Sky13°C2 mph, SE0%10000m1029hPa78%
27-Jun-2024 18:00Clear Sky11°C2 mph, NW0%10000m1031hPa93%
27-Jun-2024 21:00Clear Sky10°C4 mph, NW1%10000m1030hPa86%
28-Jun-2024 00:00Clear Sky9°C4 mph, NW0%10000m1030hPa78%
28-Jun-2024 03:00Clear Sky9°C4 mph, NW0%10000m1029hPa73%
28-Jun-2024 06:00Clear Sky11°C4 mph, NW0%10000m1029hPa63%
28-Jun-2024 09:00Clear Sky20°C2 mph, NE0%10000m1026hPa35%
28-Jun-2024 12:00Clear Sky21°C4 mph, E0%10000m1023hPa33%
28-Jun-2024 15:00Clear Sky15°C2 mph, SE0%10000m1023hPa63%
28-Jun-2024 18:00Clear Sky12°C4 mph, NW0%10000m1024hPa69%
28-Jun-2024 21:00Clear Sky11°C4 mph, NW0%10000m1023hPa62%
29-Jun-2024 00:00Clear Sky11°C4 mph, NW0%10000m1022hPa57%
29-Jun-2024 03:00Clear Sky11°C4 mph, NW2%10000m1022hPa54%
29-Jun-2024 06:00Clear Sky12°C4 mph, NW4%10000m1022hPa48%
29-Jun-2024 09:00Clear Sky22°C4 mph, W8%10000m1019hPa26%
29-Jun-2024 12:00Few Clouds23°C9 mph, SW11%10000m1016hPa25%
29-Jun-2024 15:00Scattered Clouds17°C2 mph, W43%10000m1017hPa41%
29-Jun-2024 18:00Scattered Clouds15°C7 mph, NW32%10000m1019hPa44%
29-Jun-2024 21:00Clear Sky13°C7 mph, NW2%10000m1018hPa51%
30-Jun-2024 00:00Clear Sky12°C7 mph, NW1%10000m1018hPa52%
30-Jun-2024 03:00Clear Sky12°C7 mph, NW8%10000m1018hPa51%
30-Jun-2024 06:00Clear Sky13°C4 mph, NW6%10000m1019hPa49%
30-Jun-2024 09:00Scattered Clouds22°C0 mph, SE42%10000m1018hPa31%
30-Jun-2024 12:00Scattered Clouds22°C7 mph, SE47%10000m1017hPa35%
30-Jun-2024 15:00Broken Clouds15°C4 mph, SE75%10000m1020hPa90%
30-Jun-2024 18:00Light Rain14°C2 mph, E76%10000m1022hPa89%